createdAt,value
2022-08-23T00:01:52.186Z,2.95
2022-08-23T00:04:40.471Z,2.47
2022-08-23T00:07:45.592Z,1.52
2022-08-23T00:10:28.650Z,2.38
2022-08-23T00:13:11.790Z,0.98
2022-08-23T00:15:54.836Z,1.83
2022-08-23T00:18:37.968Z,1.05
2022-08-23T00:21:22.972Z,0.90
2022-08-23T00:24:08.211Z,3.17
2022-08-23T00:26:59.274Z,1.40
2022-08-23T00:29:44.885Z,2.42
2022-08-23T00:32:30.578Z,1.67
2022-08-23T00:35:26.588Z,1.85
2022-08-23T00:38:34.335Z,3.00
2022-08-23T00:41:14.835Z,3.38
2022-08-23T00:44:15.927Z,4.18
2022-08-23T00:47:19.112Z,1.67
2022-08-23T00:50:23.434Z,2.15
2022-08-23T00:53:13.681Z,2.17
2022-08-23T00:56:00.512Z,2.00
2022-08-23T00:58:43.610Z,2.45
2022-08-23T01:01:27.807Z,2.75
2022-08-23T01:04:13.949Z,1.85
2022-08-23T01:07:00.535Z,3.40
2022-08-23T01:09:46.804Z,2.13
2022-08-23T01:12:36.227Z,2.25
2022-08-23T01:15:23.997Z,2.30
2022-08-23T01:18:10.471Z,2.45
2022-08-23T01:20:59.815Z,1.40
2022-08-23T01:23:48.911Z,1.60
2022-08-23T01:26:35.279Z,1.20
2022-08-23T01:29:18.659Z,2.40
2022-08-23T01:32:01.943Z,0.93
2022-08-23T01:34:45.949Z,1.05
2022-08-23T01:37:36.164Z,1.23
2022-08-23T01:40:20.885Z,1.98
2022-08-23T01:45:47.839Z,1.85
2022-08-23T01:48:31.018Z,1.98
2022-08-23T01:51:14.850Z,1.45
2022-08-23T01:53:58.216Z,3.00
2022-08-23T01:56:45.778Z,1.92
2022-08-23T01:59:28.866Z,1.83
2022-08-23T02:02:12.068Z,1.27
2022-08-23T02:04:55.137Z,2.05
2022-08-23T02:07:38.251Z,1.00
2022-08-23T02:10:24.645Z,1.95
2022-08-23T02:13:09.296Z,1.58
2022-08-23T02:15:52.556Z,2.25
2022-08-23T02:18:36.032Z,1.73
2022-08-23T02:21:19.302Z,1.75
2022-08-23T02:24:06.643Z,2.22
2022-08-23T02:26:56.753Z,2.38
2022-08-23T02:29:44.068Z,2.30
2022-08-23T02:32:27.321Z,1.10
2022-08-23T02:35:11.243Z,1.27
2022-08-23T02:37:54.441Z,1.42
2022-08-23T02:40:37.735Z,2.70
2022-08-23T02:43:21.226Z,1.40
2022-08-23T02:46:06.754Z,1.67
2022-08-23T02:48:50.960Z,1.20
2022-08-23T02:51:34.403Z,1.65
2022-08-23T02:54:17.607Z,1.90
2022-08-23T02:57:01.107Z,2.00
2022-08-23T02:59:44.328Z,1.25
2022-08-23T03:02:29.612Z,2.20
2022-08-23T03:05:14.573Z,2.63
2022-08-23T03:07:58.279Z,3.28
2022-08-23T03:10:44.420Z,3.63
2022-08-23T03:13:27.663Z,2.67
2022-08-23T03:16:11.809Z,3.13
2022-08-23T03:19:02.436Z,2.28
2022-08-23T03:21:45.873Z,2.33
2022-08-23T03:24:31.362Z,2.90
2022-08-23T03:27:16.512Z,1.80
2022-08-23T03:30:01.660Z,3.00
2022-08-23T03:35:34.306Z,2.30
2022-08-23T03:38:19.807Z,2.22
2022-08-23T03:41:04.670Z,1.85
2022-08-23T03:43:47.802Z,2.25
2022-08-23T03:46:34.080Z,2.17
2022-08-23T03:49:18.104Z,2.42
2022-08-23T03:52:09.596Z,2.10
2022-08-23T03:54:52.761Z,1.98
2022-08-23T03:57:36.588Z,1.77
2022-08-23T04:00:20.669Z,2.20
2022-08-23T04:03:07.339Z,2.83
2022-08-23T04:06:02.283Z,2.00
2022-08-23T04:08:49.032Z,2.50
2022-08-23T04:11:32.980Z,2.08
2022-08-23T04:14:21.389Z,1.92
2022-08-23T04:17:04.590Z,1.92
2022-08-23T04:19:48.134Z,1.52
2022-08-23T04:22:31.641Z,1.75
2022-08-23T04:25:33.443Z,2.20
2022-08-23T04:28:19.616Z,1.85
2022-08-23T04:31:05.092Z,1.45
2022-08-23T04:33:52.439Z,1.90
2022-08-23T04:36:39.565Z,2.20
2022-08-23T04:39:22.855Z,2.35
2022-08-23T04:42:19.233Z,2.75
2022-08-23T04:45:05.284Z,2.00
2022-08-23T04:50:33.301Z,2.40
2022-08-23T04:53:30.550Z,1.67
2022-08-23T04:56:30.562Z,2.25
2022-08-23T04:59:15.020Z,2.30
2022-08-23T05:02:00.677Z,2.00
2022-08-23T05:04:44.777Z,1.90
2022-08-23T05:07:31.940Z,2.97
2022-08-23T05:10:27.007Z,2.67
2022-08-23T05:13:11.241Z,2.85
2022-08-23T05:15:55.706Z,2.80
2022-08-23T05:18:44.217Z,3.40
2022-08-23T05:21:27.741Z,3.33
2022-08-23T05:24:13.781Z,3.80
2022-08-23T05:26:59.036Z,3.25
2022-08-23T05:29:42.362Z,3.85
2022-08-23T05:32:30.391Z,2.97
2022-08-23T05:35:16.382Z,2.83
2022-08-23T05:40:44.814Z,3.42
2022-08-23T05:43:32.023Z,2.10
2022-08-23T05:46:19.854Z,2.67
2022-08-23T05:49:13.263Z,2.63
2022-08-23T05:52:00.739Z,3.33
2022-08-23T05:54:47.846Z,3.35
2022-08-23T05:58:05.203Z,2.83
2022-08-23T06:00:48.327Z,4.22
2022-08-23T06:03:31.821Z,4.70
2022-08-23T06:06:17.604Z,4.03
2022-08-23T06:09:00.842Z,3.17
2022-08-23T06:11:45.270Z,3.47
2022-08-23T06:14:29.210Z,3.50
2022-08-23T06:17:12.462Z,2.33
2022-08-23T06:19:55.682Z,3.08
2022-08-23T06:22:49.936Z,3.50
2022-08-23T06:25:33.063Z,3.15
2022-08-23T06:28:25.694Z,3.50
2022-08-23T06:31:11.073Z,4.05
2022-08-23T06:33:59.767Z,3.22
2022-08-23T06:36:58.741Z,3.75
2022-08-23T06:40:12.705Z,2.38
2022-08-23T06:43:13.617Z,1.77
2022-08-23T06:46:11.715Z,2.92
2022-08-23T06:48:55.332Z,2.38
2022-08-23T06:51:40.942Z,2.28
2022-08-23T06:54:36.665Z,1.85
2022-08-23T06:57:26.684Z,2.45
2022-08-23T07:00:35.918Z,2.13
2022-08-23T07:03:36.774Z,2.00
2022-08-23T07:06:38.567Z,2.33
2022-08-23T07:09:21.614Z,1.75
2022-08-23T07:12:06.102Z,1.20
2022-08-23T07:14:51.313Z,1.13
2022-08-23T07:17:35.529Z,4.00
2022-08-23T07:20:19.254Z,2.67
2022-08-23T07:23:02.886Z,2.67
2022-08-23T07:25:46.522Z,1.45
2022-08-23T07:28:33.353Z,4.82
2022-08-23T07:31:27.387Z,2.03
2022-08-23T07:34:11.221Z,2.22
2022-08-23T07:36:57.128Z,4.50
2022-08-23T07:39:40.850Z,1.95
2022-08-23T07:42:25.032Z,2.03
2022-08-23T07:45:12.926Z,1.65
2022-08-23T07:47:58.383Z,1.52
2022-08-23T07:50:49.847Z,1.13
2022-08-23T07:53:38.864Z,1.60
2022-08-23T07:56:23.884Z,1.40
2022-08-23T07:59:19.368Z,2.53
2022-08-23T08:02:19.222Z,1.27
2022-08-23T08:05:04.098Z,1.55
2022-08-23T08:10:30.717Z,1.50
2022-08-23T08:13:13.757Z,1.48
2022-08-23T08:15:56.961Z,1.83
2022-08-23T08:18:43.333Z,1.17
2022-08-23T08:21:47.301Z,1.13
2022-08-23T08:24:43.182Z,1.80
2022-08-23T08:27:28.712Z,1.88
2022-08-23T08:30:13.217Z,2.03
2022-08-23T08:32:56.870Z,1.85
2022-08-23T08:35:39.946Z,1.90
2022-08-23T08:38:25.387Z,1.95
2022-08-23T08:41:17.191Z,1.67
2022-08-23T08:44:09.488Z,2.05
2022-08-23T08:46:56.722Z,1.50
2022-08-23T08:49:48.377Z,1.45
2022-08-23T08:52:36.797Z,1.48
2022-08-23T08:55:28.381Z,1.15
2022-08-23T08:58:18.088Z,1.23
2022-08-23T09:01:01.815Z,1.67
2022-08-23T09:03:46.213Z,1.75
2022-08-23T09:06:51.022Z,1.55
2022-08-23T09:10:04.771Z,1.23
2022-08-23T09:13:00.275Z,1.00
2022-08-23T09:15:54.084Z,1.67
2022-08-23T09:18:38.277Z,1.50
2022-08-23T09:21:22.514Z,1.85
2022-08-23T09:24:06.179Z,1.60
2022-08-23T09:27:04.642Z,2.20
2022-08-23T09:29:57.617Z,2.03
2022-08-23T09:32:44.116Z,1.17
2022-08-23T09:35:29.563Z,1.30
2022-08-23T09:38:21.855Z,1.23
2022-08-23T09:41:20.347Z,1.13
2022-08-23T09:44:09.856Z,1.30
2022-08-23T09:47:07.272Z,1.15
2022-08-23T09:49:53.182Z,0.88
2022-08-23T09:55:31.726Z,0.50
2022-08-23T09:58:22.211Z,1.10
2022-08-23T10:01:13.714Z,1.10
2022-08-23T10:04:12.280Z,1.38
2022-08-23T10:06:55.487Z,2.88
2022-08-23T10:09:38.597Z,1.35
2022-08-23T10:12:22.409Z,1.00
2022-08-23T10:15:09.588Z,2.30
2022-08-23T10:18:00.932Z,1.65
2022-08-23T10:20:55.622Z,1.13
2022-08-23T10:23:51.869Z,1.17
2022-08-23T10:26:37.738Z,0.90
2022-08-23T10:29:37.334Z,1.00
2022-08-23T10:32:31.782Z,0.75
2022-08-23T10:35:30.315Z,2.35
2022-08-23T10:38:32.719Z,1.45
2022-08-23T10:41:39.123Z,1.25
2022-08-23T10:44:26.652Z,1.75
2022-08-23T10:47:18.619Z,0.95
2022-08-23T10:50:08.331Z,1.25
2022-08-23T10:52:55.681Z,0.60
2022-08-23T10:55:55.048Z,0.50
2022-08-23T10:58:47.503Z,0.90
2022-08-23T11:01:36.450Z,0.88
2022-08-23T11:04:28.290Z,1.70
2022-08-23T11:07:42.818Z,1.05
2022-08-23T11:10:53.587Z,1.00
2022-08-23T11:13:54.184Z,2.28
2022-08-23T11:16:41.184Z,1.13
2022-08-23T11:19:50.917Z,1.27
2022-08-23T11:22:36.115Z,1.02
2022-08-23T11:25:41.674Z,2.15
2022-08-23T11:31:31.354Z,4.30
2022-08-23T11:34:27.276Z,1.08
2022-08-23T11:37:31.234Z,1.73
2022-08-23T11:41:07.058Z,1.30
2022-08-23T11:44:23.167Z,2.33
2022-08-23T11:47:09.108Z,0.93
2022-08-23T11:50:16.054Z,0.68
2022-08-23T11:53:24.244Z,1.33
2022-08-23T11:56:34.633Z,0.70
2022-08-23T11:59:35.051Z,2.17
2022-08-23T12:02:47.494Z,1.10
2022-08-23T12:06:10.601Z,1.77
2022-08-23T12:09:02.009Z,0.57
2022-08-23T12:12:26.069Z,1.50
2022-08-23T12:15:13.300Z,1.73
2022-08-23T12:18:14.271Z,1.55
2022-08-23T12:20:59.396Z,0.70
2022-08-23T12:23:47.963Z,1.40
2022-08-23T12:26:41.039Z,2.17
2022-08-23T12:29:32.804Z,2.47
2022-08-23T12:32:30.421Z,0.90
2022-08-23T12:35:32.937Z,3.63
2022-08-23T12:38:22.449Z,0.82
2022-08-23T12:41:18.858Z,1.15
2022-08-23T12:44:06.106Z,1.65
2022-08-23T12:46:51.081Z,1.52
2022-08-23T12:49:37.126Z,0.95
2022-08-23T12:52:25.873Z,2.55
2022-08-23T12:55:15.493Z,0.90
2022-08-23T12:57:59.596Z,1.10
2022-08-23T13:00:51.522Z,2.30
2022-08-23T13:03:38.782Z,0.70
2022-08-23T13:06:26.836Z,1.20
2022-08-23T13:09:15.596Z,1.42
2022-08-23T13:11:59.675Z,0.60
2022-08-23T13:14:47.764Z,0.70
2022-08-23T13:17:39.709Z,1.25
2022-08-23T13:20:25.506Z,2.15
2022-08-23T13:23:10.279Z,0.55
2022-08-23T13:25:53.409Z,1.63
2022-08-23T13:28:36.468Z,1.60
2022-08-23T13:31:19.639Z,1.38
2022-08-23T13:34:02.792Z,1.67
2022-08-23T13:36:49.374Z,2.35
2022-08-23T13:39:36.231Z,1.17
2022-08-23T13:42:35.225Z,0.82
2022-08-23T13:45:24.739Z,0.80
2022-08-23T13:48:12.782Z,2.53
2022-08-23T13:51:16.179Z,1.52
2022-08-23T13:54:01.087Z,1.70
2022-08-23T13:56:50.682Z,1.13
2022-08-23T13:59:37.182Z,1.33
2022-08-23T14:02:21.744Z,1.02
2022-08-23T14:05:05.204Z,1.00
2022-08-23T14:07:52.788Z,2.13
2022-08-23T14:10:35.908Z,1.45
2022-08-23T14:13:25.020Z,1.90
2022-08-23T14:19:16.689Z,3.17
2022-08-23T14:22:17.811Z,2.50
2022-08-23T14:25:01.203Z,4.00
2022-08-23T14:27:46.673Z,2.40
2022-08-23T14:30:35.975Z,3.20
2022-08-23T14:33:20.440Z,2.22
2022-08-23T14:36:04.446Z,3.53
2022-08-23T14:38:48.734Z,2.80
2022-08-23T14:41:33.299Z,2.70
2022-08-23T14:44:17.370Z,3.03
2022-08-23T14:47:01.776Z,2.42
2022-08-23T14:49:44.818Z,2.88
2022-08-23T14:52:28.222Z,2.45
2022-08-23T14:55:12.523Z,2.45
2022-08-23T14:57:55.630Z,2.58
2022-08-23T15:00:39.011Z,2.92
2022-08-23T15:03:27.051Z,3.97
2022-08-23T15:06:10.236Z,3.95
2022-08-23T15:08:53.296Z,3.20
2022-08-23T15:14:39.441Z,3.15
2022-08-23T15:17:26.171Z,2.40
2022-08-23T15:20:13.967Z,2.78
2022-08-23T15:22:57.455Z,2.92
2022-08-23T15:25:43.354Z,2.97
2022-08-23T15:28:26.845Z,3.20
2022-08-23T15:31:11.963Z,2.92
2022-08-23T15:33:55.030Z,2.00
2022-08-23T15:36:42.962Z,5.22
2022-08-23T15:39:26.064Z,2.58
2022-08-23T15:42:09.126Z,2.50
2022-08-23T15:44:52.197Z,4.00
2022-08-23T15:47:44.021Z,2.92
2022-08-23T15:50:31.813Z,3.22
2022-08-23T15:53:16.820Z,2.63
2022-08-23T15:56:05.133Z,2.85
2022-08-23T15:58:49.873Z,2.33
2022-08-23T16:01:33.948Z,2.63
2022-08-23T16:04:17.945Z,2.72
2022-08-23T16:07:01.801Z,2.80
2022-08-23T16:09:47.157Z,3.03
2022-08-23T16:12:30.883Z,2.88
2022-08-23T16:15:13.978Z,2.38
2022-08-23T16:17:57.023Z,4.00
2022-08-23T16:20:40.251Z,2.80
2022-08-23T16:23:23.492Z,2.42
2022-08-23T16:26:10.765Z,2.78
2022-08-23T16:28:58.646Z,3.55
2022-08-23T16:31:43.162Z,3.85
2022-08-23T16:34:26.276Z,1.95
2022-08-23T16:37:09.769Z,2.13
2022-08-23T16:39:53.051Z,2.42
2022-08-23T16:42:37.749Z,2.15
2022-08-23T16:45:25.919Z,2.90
2022-08-23T16:48:14.279Z,4.47
2022-08-23T16:50:57.963Z,2.63
2022-08-23T16:53:41.572Z,2.28
2022-08-23T16:56:27.505Z,2.75
2022-08-23T16:59:13.232Z,2.40
2022-08-23T17:01:59.604Z,2.17
2022-08-23T17:04:42.760Z,5.30
2022-08-23T17:07:26.476Z,2.60
2022-08-23T17:10:11.736Z,2.38
2022-08-23T17:12:57.223Z,2.67
2022-08-23T17:15:42.011Z,2.95
2022-08-23T17:21:09.077Z,3.55
2022-08-23T17:23:52.783Z,6.30
2022-08-23T17:26:37.090Z,3.15
2022-08-23T17:29:20.447Z,3.60
2022-08-23T17:32:05.424Z,2.88
2022-08-23T17:34:48.533Z,2.25
2022-08-23T17:37:31.607Z,2.88
2022-08-23T17:40:21.108Z,3.55
2022-08-23T17:43:05.933Z,3.60
2022-08-23T17:45:51.369Z,4.38
2022-08-23T17:48:35.883Z,6.40
2022-08-23T17:51:19.722Z,2.95
2022-08-23T17:54:03.065Z,5.70
2022-08-23T17:56:50.417Z,5.25
2022-08-23T17:59:34.307Z,3.33
2022-08-23T18:02:17.454Z,6.22
2022-08-23T18:05:02.252Z,2.88
2022-08-23T18:10:30.079Z,3.35
2022-08-23T18:13:13.704Z,5.25
2022-08-23T18:15:56.811Z,3.55
2022-08-23T18:18:40.513Z,2.78
2022-08-23T18:21:25.555Z,4.70
2022-08-23T18:24:09.393Z,2.38
2022-08-23T18:27:10.108Z,2.22
2022-08-23T18:29:53.227Z,2.75
2022-08-23T18:32:36.598Z,2.53
2022-08-23T18:35:19.831Z,2.83
2022-08-23T18:38:04.535Z,2.85
2022-08-23T18:43:37.723Z,2.15
2022-08-23T18:46:21.108Z,2.88
2022-08-23T18:49:04.977Z,2.65
2022-08-23T18:51:48.117Z,2.88
2022-08-23T18:54:34.085Z,3.92
2022-08-23T18:57:17.391Z,2.63
2022-08-23T19:00:00.478Z,2.38
2022-08-23T19:02:43.665Z,3.72
2022-08-23T19:05:26.984Z,2.88
2022-08-23T19:08:24.719Z,6.20
2022-08-23T19:11:10.616Z,3.83
2022-08-23T19:13:53.693Z,5.32
2022-08-23T19:16:36.995Z,4.25
2022-08-23T19:19:20.485Z,4.28
2022-08-23T19:22:04.445Z,5.25
2022-08-23T19:24:47.537Z,4.60
2022-08-23T19:27:32.286Z,4.95
2022-08-23T19:33:00.597Z,3.97
2022-08-23T19:35:43.779Z,5.65
2022-08-23T19:38:27.695Z,4.63
2022-08-23T19:41:10.799Z,4.43
2022-08-23T19:43:55.544Z,4.07
2022-08-23T19:49:25.326Z,5.32
2022-08-23T19:52:08.827Z,3.95
2022-08-23T19:54:51.959Z,4.47
2022-08-23T19:57:35.531Z,4.28
2022-08-23T20:00:20.046Z,5.05
2022-08-23T20:03:03.553Z,3.33
2022-08-23T20:05:47.050Z,3.17
2022-08-23T20:08:30.943Z,2.95
2022-08-23T20:11:14.189Z,5.27
2022-08-23T20:13:57.259Z,4.95
2022-08-23T20:16:42.261Z,3.95
2022-08-23T20:19:25.518Z,5.22
2022-08-23T20:22:26.237Z,5.15
2022-08-23T20:25:10.312Z,5.30
2022-08-23T20:27:53.832Z,5.68
2022-08-23T20:30:37.536Z,4.28
2022-08-23T20:33:22.159Z,3.80
2022-08-23T20:36:05.536Z,4.38
2022-08-23T20:38:49.020Z,2.53
2022-08-23T20:41:34.707Z,3.50
2022-08-23T20:44:19.091Z,5.82
2022-08-23T20:47:03.196Z,4.10
2022-08-23T20:49:48.043Z,7.53
2022-08-23T20:52:34.502Z,5.50
2022-08-23T20:55:18.098Z,6.28
2022-08-23T20:58:01.124Z,3.92
2022-08-23T21:00:44.285Z,5.20
2022-08-23T21:03:27.437Z,5.72
2022-08-23T21:06:20.215Z,4.28
2022-08-23T21:09:04.944Z,4.90
2022-08-23T21:11:49.210Z,4.43
2022-08-23T21:14:32.294Z,5.15
2022-08-23T21:17:15.365Z,4.55
2022-08-23T21:19:58.740Z,5.20
2022-08-23T21:22:43.194Z,6.10
2022-08-23T21:25:26.323Z,5.95
2022-08-23T21:28:09.455Z,4.30
2022-08-23T21:30:53.146Z,4.53
2022-08-23T21:33:39.977Z,5.40
2022-08-23T21:36:25.742Z,4.05
2022-08-23T21:39:10.350Z,7.15
2022-08-23T21:41:55.772Z,5.07
2022-08-23T21:44:38.881Z,4.28
2022-08-23T21:47:22.038Z,5.13
2022-08-23T21:50:06.043Z,3.97
2022-08-23T21:52:52.436Z,4.93
2022-08-23T21:55:41.908Z,5.18
2022-08-23T21:58:25.087Z,4.20
2022-08-23T22:01:09.122Z,3.13
2022-08-23T22:03:56.600Z,3.88
2022-08-23T22:06:40.852Z,3.95
2022-08-23T22:09:25.731Z,3.47
2022-08-23T22:12:15.759Z,5.05
2022-08-23T22:14:58.892Z,5.53
2022-08-23T22:17:42.010Z,6.70
2022-08-23T22:20:25.397Z,5.55
2022-08-23T22:23:08.482Z,5.07
2022-08-23T22:25:51.574Z,4.50
2022-08-23T22:28:37.105Z,3.88
2022-08-23T22:31:20.328Z,4.43
2022-08-23T22:34:03.700Z,4.45
2022-08-23T22:36:51.372Z,4.60
2022-08-23T22:39:36.491Z,5.30
2022-08-23T22:42:19.530Z,4.75
2022-08-23T22:45:06.236Z,5.55
2022-08-23T22:47:49.291Z,5.75
2022-08-23T22:50:32.365Z,6.70
2022-08-23T22:53:16.373Z,4.97
2022-08-23T22:55:59.495Z,5.53
2022-08-23T22:58:43.827Z,3.78
2022-08-23T23:01:31.718Z,5.25
2022-08-23T23:04:19.332Z,4.35
2022-08-23T23:07:03.605Z,4.78
2022-08-23T23:09:46.621Z,5.03
2022-08-23T23:12:31.467Z,3.33
2022-08-23T23:15:15.011Z,4.05
2022-08-23T23:17:59.497Z,3.08
2022-08-23T23:20:41.643Z,3.33
2022-08-23T23:23:24.985Z,3.50
2022-08-23T23:26:09.518Z,4.20
2022-08-23T23:28:52.622Z,3.72
2022-08-23T23:31:36.278Z,2.08
2022-08-23T23:34:20.767Z,4.65
2022-08-23T23:37:03.862Z,4.38
2022-08-23T23:39:46.915Z,5.25
2022-08-23T23:42:30.009Z,4.68
2022-08-23T23:45:13.430Z,4.45
2022-08-23T23:47:56.877Z,4.20
2022-08-23T23:50:46.660Z,3.85
2022-08-23T23:53:30.726Z,3.50
2022-08-23T23:56:16.262Z,6.80
2022-08-23T23:59:00.163Z,6.38
